Time;durP1;ratioP1;P1;durP2;ratioP2;P2;SDS_P1;SDS_P2;PMS_P1;PMS_P2;Temp;Humidity;BMP_temperature;BMP_pressure;BME280_temperature;BME280_humidity;BME280_pressure;Samples;Min_cycle;Max_cycle;Signal;HPM_P1;HPM_P2
2021/05/15 00:00:30;;;;;;;4.28;2.20;;;17.10;69.10;;;;;;5014928;28;20124;-68
2021/05/15 00:02:57;;;;;;;4.75;2.55;;;17.10;69.10;;;;;;5014834;28;20037;-69
2021/05/15 00:05:23;;;;;;;5.68;2.20;;;17.10;69.10;;;;;;4996924;28;20029;-69
2021/05/15 00:07:49;;;;;;;5.55;2.40;;;17.00;69.00;;;;;;4997122;28;20426;-69
2021/05/15 00:10:15;;;;;;;3.63;2.00;;;17.10;69.10;;;;;;4997050;28;20034;-69
2021/05/15 00:12:41;;;;;;;6.03;2.53;;;17.00;69.00;;;;;;5014400;28;20030;-68
2021/05/15 00:15:09;;;;;;;4.70;2.40;;;17.00;69.10;;;;;;5014361;28;20018;-69
2021/05/15 00:17:34;;;;;;;4.85;2.30;;;17.00;69.10;;;;;;4997093;28;20659;-69
2021/05/15 00:20:00;;;;;;;4.32;2.08;;;17.00;69.20;;;;;;5014583;28;20057;-69
2021/05/15 00:22:26;;;;;;;4.38;2.30;;;17.00;69.20;;;;;;5012472;28;20041;-69
2021/05/15 00:24:51;;;;;;;4.45;2.30;;;17.00;69.20;;;;;;5013452;28;20033;-70
2021/05/15 00:27:17;;;;;;;4.95;2.20;;;17.00;69.30;;;;;;5011205;28;20022;-69
2021/05/15 00:29:42;;;;;;;4.50;2.40;;;17.00;69.30;;;;;;5014329;28;20026;-69
2021/05/15 00:32:08;;;;;;;4.55;2.30;;;17.00;69.30;;;;;;5014283;28;20030;-69
2021/05/15 00:34:33;;;;;;;4.72;2.38;;;17.00;69.40;;;;;;5014065;28;20125;-69
2021/05/15 00:36:59;;;;;;;3.92;2.40;;;17.00;69.30;;;;;;4996367;28;20401;-69
2021/05/15 00:39:24;;;;;;;4.70;2.30;;;16.90;69.30;;;;;;5014077;28;20034;-69
2021/05/15 00:41:50;;;;;;;4.45;2.45;;;16.90;69.30;;;;;;5014032;28;20029;-69
2021/05/15 00:46:50;;;;;;;4.60;2.38;;;16.90;69.30;;;;;;5014182;28;20030;-69
2021/05/15 00:49:16;;;;;;;4.90;2.50;;;16.90;69.40;;;;;;4996408;28;20397;-69
2021/05/15 00:51:42;;;;;;;3.85;2.28;;;16.90;69.40;;;;;;5013794;28;21915;-69
2021/05/15 00:54:10;;;;;;;4.18;2.50;;;16.90;69.40;;;;;;5013880;28;20018;-69
2021/05/15 00:56:36;;;;;;;4.80;2.40;;;16.90;69.40;;;;;;5013929;28;20074;-68
2021/05/15 00:59:02;;;;;;;3.95;2.42;;;16.90;69.50;;;;;;4996282;28;20084;-68
2021/05/15 01:01:28;;;;;;;4.18;2.50;;;16.90;69.50;;;;;;4996137;28;20053;-68
2021/05/15 01:03:54;;;;;;;5.22;2.60;;;16.90;69.60;;;;;;4995858;28;20061;-69
2021/05/15 01:06:20;;;;;;;4.43;2.28;;;16.90;69.60;;;;;;5013585;28;20018;-69
2021/05/15 01:08:46;;;;;;;5.47;2.60;;;16.90;69.60;;;;;;5013691;28;20024;-68
2021/05/15 01:11:14;;;;;;;4.35;2.58;;;16.80;69.60;;;;;;5013411;28;20033;-69
2021/05/15 01:13:39;;;;;;;5.72;2.60;;;16.80;69.60;;;;;;4995619;28;20076;-70
2021/05/15 01:16:06;;;;;;;5.85;2.70;;;16.80;69.60;;;;;;5013518;28;20018;-70
2021/05/15 01:18:32;;;;;;;5.47;2.55;;;16.80;69.60;;;;;;5013511;28;20098;-69
2021/05/15 01:20:59;;;;;;;4.78;2.67;;;16.80;69.70;;;;;;5013372;28;20129;-69
2021/05/15 01:23:24;;;;;;;5.38;2.50;;;16.80;69.70;;;;;;5013107;28;20120;-69
2021/05/15 01:25:50;;;;;;;5.35;2.70;;;16.80;69.70;;;;;;5013168;28;20109;-68
2021/05/15 01:28:15;;;;;;;5.55;2.55;;;16.80;69.70;;;;;;5013198;28;20041;-69
2021/05/15 01:30:41;;;;;;;8.73;3.05;;;16.70;69.60;;;;;;5013290;28;20053;-69
2021/05/15 01:33:07;;;;;;;4.65;2.88;;;16.70;69.70;;;;;;5013037;28;20030;-69
2021/05/15 01:35:32;;;;;;;4.88;2.60;;;16.70;69.70;;;;;;5012589;28;20022;-68
2021/05/15 01:37:58;;;;;;;4.45;2.47;;;16.70;69.70;;;;;;4995070;28;20022;-69
2021/05/15 01:40:24;;;;;;;4.22;2.90;;;16.70;69.80;;;;;;4995411;28;20021;-68
2021/05/15 01:42:49;;;;;;;5.05;2.72;;;16.70;70.00;;;;;;5012956;28;20040;-68
2021/05/15 01:45:15;;;;;;;4.95;2.90;;;16.70;69.80;;;;;;5012661;28;20022;-69
2021/05/15 01:47:40;;;;;;;4.55;2.40;;;16.80;69.90;;;;;;5012853;28;20097;-69
2021/05/15 01:50:08;;;;;;;5.10;2.45;;;16.70;69.90;;;;;;4995372;28;20061;-68
2021/05/15 01:52:34;;;;;;;4.60;2.63;;;16.70;69.90;;;;;;5012649;28;20017;-69
2021/05/15 01:55:02;;;;;;;5.05;2.85;;;16.70;69.90;;;;;;4994895;28;20500;-68
2021/05/15 01:57:27;;;;;;;5.32;2.80;;;16.70;69.90;;;;;;5012623;28;20030;-69
2021/05/15 01:59:53;;;;;;;4.90;2.70;;;16.70;70.00;;;;;;5012715;28;20088;-69
2021/05/15 02:02:18;;;;;;;5.88;2.88;;;16.70;70.00;;;;;;4994860;28;20075;-68
2021/05/15 02:04:44;;;;;;;6.63;3.17;;;16.60;70.00;;;;;;5012336;28;20121;-69
2021/05/15 02:07:09;;;;;;;5.82;2.95;;;16.70;70.10;;;;;;5012553;28;20485;-68
2021/05/15 02:09:35;;;;;;;5.35;2.80;;;16.70;70.10;;;;;;5012470;28;20025;-68
2021/05/15 02:12:00;;;;;;;5.13;2.70;;;16.60;70.10;;;;;;4994894;28;20030;-69
2021/05/15 02:14:26;;;;;;;5.60;2.88;;;16.70;70.20;;;;;;4994554;28;20029;-68
2021/05/15 02:16:51;;;;;;;6.15;2.80;;;16.70;70.10;;;;;;5012332;28;20037;-68
2021/05/15 02:19:17;;;;;;;5.25;2.95;;;16.70;70.10;;;;;;5012413;28;20022;-69
2021/05/15 02:21:43;;;;;;;6.22;2.92;;;16.60;70.20;;;;;;5012260;28;20489;-68
2021/05/15 02:24:09;;;;;;;6.97;3.13;;;16.70;70.20;;;;;;5011968;28;20737;-68
2021/05/15 02:26:34;;;;;;;5.38;2.83;;;16.70;70.20;;;;;;4994698;28;20022;-68
2021/05/15 02:29:00;;;;;;;8.43;2.92;;;16.60;70.20;;;;;;4993780;28;20025;-68
2021/05/15 02:31:25;;;;;;;6.05;2.80;;;16.60;70.20;;;;;;5012127;28;20141;-68
2021/05/15 02:33:51;;;;;;;5.75;2.95;;;16.60;70.20;;;;;;4994208;28;20033;-69
2021/05/15 02:36:16;;;;;;;6.07;3.05;;;16.60;70.20;;;;;;5087730;22;20049;-65
2021/05/15 02:38:42;;;;;;;5.30;3.00;;;16.70;70.20;;;;;;5031679;28;20025;-65
2021/05/15 02:41:07;;;;;;;5.32;2.70;;;16.60;70.20;;;;;;5031860;28;20021;-65
2021/05/15 02:43:33;;;;;;;7.50;3.20;;;16.60;70.20;;;;;;5030215;28;20025;-64
2021/05/15 02:45:59;;;;;;;4.60;2.83;;;16.60;70.20;;;;;;5030476;28;20022;-66
2021/05/15 02:48:24;;;;;;;6.78;3.10;;;16.60;70.30;;;;;;5031405;28;20104;-64
2021/05/15 02:50:51;;;;;;;6.07;3.10;;;16.60;70.30;;;;;;5031452;28;20029;-64
2021/05/15 02:53:18;;;;;;;6.22;3.28;;;16.60;70.50;;;;;;5031521;28;20065;-64
2021/05/15 02:55:43;;;;;;;6.32;2.88;;;16.60;70.50;;;;;;5031371;28;20030;-65
2021/05/15 02:58:10;;;;;;;6.85;3.38;;;16.60;70.50;;;;;;5031716;28;20025;-66
2021/05/15 03:00:36;;;;;;;5.78;3.30;;;16.60;70.40;;;;;;5031627;28;20472;-64
2021/05/15 03:03:02;;;;;;;5.47;3.22;;;16.60;70.50;;;;;;5031610;28;20075;-65
2021/05/15 03:05:28;;;;;;;7.28;3.08;;;16.60;70.50;;;;;;5031234;28;20030;-67
2021/05/15 03:07:54;;;;;;;6.40;3.08;;;16.60;70.40;;;;;;5031484;28;20044;-67
2021/05/15 03:10:23;;;;;;;6.22;3.40;;;16.60;70.40;;;;;;5030244;28;20060;-66
2021/05/15 03:12:50;;;;;;;6.80;3.30;;;16.60;70.40;;;;;;5031424;28;20021;-65
2021/05/15 03:15:16;;;;;;;5.90;3.20;;;16.50;70.30;;;;;;5031191;28;20018;-64
2021/05/15 03:17:42;;;;;;;6.85;3.17;;;16.60;70.50;;;;;;5013760;28;20022;-63
2021/05/15 03:20:10;;;;;;;6.95;3.30;;;16.60;71.20;;;;;;5031489;28;20036;-64
2021/05/15 03:22:36;;;;;;;7.07;3.30;;;16.60;71.80;;;;;;5031398;28;20139;-65
2021/05/15 03:25:03;;;;;;;5.47;3.00;;;16.60;70.60;;;;;;5013324;28;20504;-65
2021/05/15 03:27:29;;;;;;;8.02;3.30;;;16.60;70.50;;;;;;5030042;28;20021;-68
2021/05/15 03:29:55;;;;;;;9.00;3.30;;;16.60;70.50;;;;;;5031360;28;20021;-64
2021/05/15 03:32:20;;;;;;;6.55;3.30;;;16.60;70.50;;;;;;5031261;28;20033;-65
2021/05/15 03:34:46;;;;;;;5.95;3.30;;;16.60;70.60;;;;;;5013138;28;20087;-64
2021/05/15 03:37:12;;;;;;;7.30;3.55;;;16.50;70.50;;;;;;5031226;28;20033;-67
2021/05/15 03:39:38;;;;;;;5.65;2.90;;;16.50;70.50;;;;;;5031288;28;20087;-67
2021/05/15 03:42:03;;;;;;;6.10;2.80;;;16.50;70.50;;;;;;5031233;28;20449;-63
2021/05/15 03:44:29;;;;;;;5.03;3.13;;;16.50;70.50;;;;;;5030888;28;20396;-65
2021/05/15 03:46:54;;;;;;;6.28;3.28;;;16.50;70.50;;;;;;5013618;28;20401;-65
2021/05/15 03:49:20;;;;;;;5.80;3.22;;;16.50;70.60;;;;;;5031161;28;20072;-64
2021/05/15 03:51:46;;;;;;;5.05;3.13;;;16.50;70.50;;;;;;5029739;28;20120;-65
2021/05/15 03:54:11;;;;;;;5.38;3.15;;;16.50;70.60;;;;;;5013184;28;20022;-64
2021/05/15 03:56:37;;;;;;;5.38;3.22;;;16.50;70.60;;;;;;5013322;28;20508;-67
2021/05/15 03:59:04;;;;;;;6.15;3.20;;;16.50;70.60;;;;;;5031118;28;20031;-64
2021/05/15 04:01:30;;;;;;;7.38;3.40;;;16.50;70.50;;;;;;5033683;28;20477;-67
2021/05/15 04:03:55;;;;;;;6.82;3.00;;;16.50;70.60;;;;;;5034514;28;20030;-64
2021/05/15 04:06:21;;;;;;;6.63;3.47;;;16.50;70.60;;;;;;5016727;28;20032;-64
2021/05/15 04:08:46;;;;;;;7.32;3.40;;;16.50;70.60;;;;;;5034611;28;20033;-65
2021/05/15 04:11:12;;;;;;;6.53;3.10;;;16.50;70.50;;;;;;5016888;28;20116;-64
2021/05/15 04:13:54;;;;;;;5.43;3.15;;;16.50;70.50;;;;;;5034188;28;20108;-64
2021/05/15 04:16:42;;;;;;;6.25;3.13;;;16.50;70.60;;;;;;5034455;28;20017;-64
2021/05/15 04:19:08;;;;;;;5.88;3.03;;;16.50;70.60;;;;;;5034457;28;20021;-64
2021/05/15 04:21:34;;;;;;;5.35;2.80;;;16.50;70.60;;;;;;5034387;28;20071;-65
2021/05/15 04:23:59;;;;;;;5.40;3.00;;;16.50;70.50;;;;;;5034122;28;20013;-64
2021/05/15 04:26:25;;;;;;;5.47;2.90;;;16.50;70.60;;;;;;5034321;28;20052;-67
2021/05/15 04:28:50;;;;;;;5.10;3.00;;;16.60;70.60;;;;;;5034278;28;20396;-64
2021/05/15 04:31:16;;;;;;;7.35;3.17;;;16.60;70.60;;;;;;5034190;28;20460;-65
2021/05/15 04:33:41;;;;;;;6.22;3.28;;;16.60;70.50;;;;;;5033841;28;20040;-64
2021/05/15 04:36:07;;;;;;;5.95;3.30;;;16.60;70.40;;;;;;5033925;28;20041;-64
2021/05/15 04:38:32;;;;;;;7.00;2.92;;;16.60;70.40;;;;;;5034170;28;20056;-64
2021/05/15 04:40:58;;;;;;;6.28;3.40;;;16.60;70.40;;;;;;5034091;28;20101;-66
2021/05/15 04:43:24;;;;;;;4.70;2.97;;;16.60;70.40;;;;;;5016176;28;20439;-65
2021/05/15 04:45:51;;;;;;;5.25;3.05;;;16.60;70.40;;;;;;5032401;28;20030;-64
2021/05/15 04:48:16;;;;;;;6.13;3.00;;;16.60;70.40;;;;;;5033953;28;20036;-67
2021/05/15 04:50:42;;;;;;;6.43;3.33;;;16.60;70.20;;;;;;5033872;28;20552;-65
2021/05/15 04:53:08;;;;;;;5.25;3.08;;;16.60;70.30;;;;;;5033795;28;20026;-65
2021/05/15 04:55:33;;;;;;;6.03;3.13;;;16.60;70.30;;;;;;5033498;28;20025;-65
2021/05/15 04:58:00;;;;;;;5.38;2.92;;;16.60;70.80;;;;;;5016027;28;20564;-64
2021/05/15 05:00:27;;;;;;;5.70;3.05;;;16.60;70.20;;;;;;5033722;28;20021;-65
2021/05/15 05:02:52;;;;;;;5.18;3.10;;;16.60;70.10;;;;;;5015903;28;20025;-65
2021/05/15 05:05:18;;;;;;;5.53;3.35;;;16.60;70.10;;;;;;5015684;28;20032;-68
2021/05/15 05:07:43;;;;;;;4.80;2.90;;;16.60;70.10;;;;;;5032328;28;20018;-64
2021/05/15 05:10:10;;;;;;;6.53;2.97;;;16.60;70.10;;;;;;5033938;28;20029;-65
2021/05/15 05:12:36;;;;;;;7.95;2.97;;;16.60;70.10;;;;;;5023075;28;20119;-66
2021/05/15 05:15:03;;;;;;;6.38;3.13;;;16.60;70.40;;;;;;5013827;28;20489;-65
2021/05/15 05:17:28;;;;;;;6.13;2.72;;;16.70;70.20;;;;;;5008811;28;20087;-64
2021/05/15 05:19:54;;;;;;;4.57;2.50;;;16.70;70.20;;;;;;5006050;28;20033;-70
2021/05/15 05:22:20;;;;;;;6.63;2.88;;;16.70;70.00;;;;;;4989312;28;20560;-65
2021/05/15 05:24:46;;;;;;;6.05;2.70;;;16.70;70.00;;;;;;5006728;28;20022;-67
2021/05/15 05:27:13;;;;;;;5.90;3.20;;;16.70;69.90;;;;;;5007241;28;20460;-65
2021/05/15 05:29:38;;;;;;;8.55;2.70;;;16.70;69.90;;;;;;5017981;28;20099;-67
2021/05/15 05:32:06;;;;;;;4.28;2.63;;;16.70;69.70;;;;;;5026938;28;20135;-65
2021/05/15 05:34:32;;;;;;;5.18;2.67;;;16.70;69.80;;;;;;5008736;28;20120;-66
2021/05/15 05:36:57;;;;;;;4.85;2.70;;;16.70;69.70;;;;;;5026854;28;20175;-64
2021/05/15 05:39:23;;;;;;;4.40;2.63;;;16.70;69.80;;;;;;5026347;28;20102;-66
2021/05/15 05:41:49;;;;;;;5.72;3.00;;;16.70;69.80;;;;;;5007926;28;20017;-65
2021/05/15 05:44:15;;;;;;;7.90;2.72;;;16.70;69.80;;;;;;5026306;28;20036;-67
2021/05/15 05:46:41;;;;;;;6.57;2.95;;;16.80;69.70;;;;;;5026167;28;20104;-67
2021/05/15 05:49:06;;;;;;;6.30;2.92;;;16.80;69.80;;;;;;5008927;28;20176;-65
2021/05/15 05:51:33;;;;;;;5.05;2.92;;;16.80;70.10;;;;;;5008844;28;20022;-65
2021/05/15 05:53:59;;;;;;;5.75;3.20;;;16.70;70.10;;;;;;5026466;28;20033;-67
2021/05/15 05:56:24;;;;;;;5.55;2.75;;;16.80;70.10;;;;;;5026371;28;20674;-64
2021/05/15 05:58:50;;;;;;;5.75;2.70;;;16.80;70.20;;;;;;5008575;28;20021;-66
2021/05/15 06:01:17;;;;;;;5.90;2.90;;;16.80;69.90;;;;;;5008451;28;20084;-65
2021/05/15 06:03:43;;;;;;;4.28;2.65;;;16.80;69.80;;;;;;5026211;28;20037;-64
2021/05/15 06:06:09;;;;;;;5.90;2.60;;;16.80;69.90;;;;;;5026188;28;20104;-65
2021/05/15 06:08:35;;;;;;;4.15;2.58;;;16.80;69.90;;;;;;5026311;28;20492;-66
2021/05/15 06:11:00;;;;;;;6.55;2.88;;;16.80;69.80;;;;;;5008403;28;20040;-65
2021/05/15 06:13:26;;;;;;;6.32;2.58;;;16.80;69.30;;;;;;5025921;28;20033;-65
2021/05/15 06:15:52;;;;;;;7.85;3.00;;;16.80;69.50;;;;;;5002965;28;20472;-67
2021/05/15 06:18:19;;;;;;;6.07;3.40;;;16.80;69.40;;;;;;5014292;28;20067;-65
2021/05/15 06:20:46;;;;;;;6.53;3.33;;;16.80;69.90;;;;;;5023500;28;20022;-65
2021/05/15 06:23:11;;;;;;;6.15;2.72;;;16.80;70.10;;;;;;5025554;28;20034;-67
2021/05/15 06:25:37;;;;;;;5.43;2.78;;;16.80;70.10;;;;;;5024301;28;20041;-65
2021/05/15 06:28:03;;;;;;;4.07;2.47;;;16.90;70.10;;;;;;5025576;28;20036;-67
2021/05/15 06:30:28;;;;;;;4.47;2.28;;;16.90;70.10;;;;;;5025846;28;20028;-64
2021/05/15 06:32:54;;;;;;;4.28;2.30;;;16.90;70.10;;;;;;5025474;28;20083;-65
2021/05/15 06:35:19;;;;;;;4.90;2.05;;;16.90;69.90;;;;;;5025458;28;20046;-64
2021/05/15 06:37:45;;;;;;;5.90;2.30;;;16.90;69.90;;;;;;5025267;28;20032;-68
2021/05/15 06:40:11;;;;;;;7.93;2.65;;;16.90;69.90;;;;;;5024603;28;20025;-64
2021/05/15 06:42:37;;;;;;;5.63;2.50;;;16.90;69.20;;;;;;5022867;28;20034;-64
2021/05/15 06:45:07;;;;;;;4.43;2.15;;;16.90;69.10;;;;;;5003592;28;20481;-66
2021/05/15 06:47:33;;;;;;;4.67;2.27;;;16.90;69.50;;;;;;5020221;28;20038;-65
2021/05/15 06:49:59;;;;;;;4.90;2.33;;;16.90;69.60;;;;;;5020196;28;20032;-65
2021/05/15 06:52:25;;;;;;;4.10;1.70;;;16.90;69.60;;;;;;5021043;28;20480;-67
2021/05/15 06:54:50;;;;;;;5.03;2.20;;;16.90;69.60;;;;;;5019425;28;20018;-64
2021/05/15 06:57:17;;;;;;;5.57;2.10;;;16.90;69.50;;;;;;5022226;28;20026;-65
2021/05/15 06:59:42;;;;;;;4.45;2.15;;;16.90;69.50;;;;;;5002035;28;20026;-64
2021/05/15 07:02:08;;;;;;;4.18;2.00;;;16.90;69.40;;;;;;5021414;28;20025;-65
2021/05/15 07:04:33;;;;;;;4.95;1.92;;;16.90;69.10;;;;;;5018435;28;20554;-65
2021/05/15 07:06:59;;;;;;;3.80;2.03;;;16.90;68.80;;;;;;5020740;28;20029;-65
2021/05/15 07:09:24;;;;;;;3.63;1.90;;;16.90;68.90;;;;;;5019268;28;20030;-64
2021/05/15 07:11:50;;;;;;;4.30;2.17;;;16.90;68.50;;;;;;5022048;28;20521;-64
2021/05/15 07:14:17;;;;;;;3.65;1.88;;;16.90;68.50;;;;;;5020069;28;20096;-64
2021/05/15 07:16:43;;;;;;;4.43;1.77;;;17.00;68.40;;;;;;5000794;28;20028;-67
2021/05/15 07:19:08;;;;;;;3.95;2.10;;;17.00;68.40;;;;;;5003580;28;20466;-65
2021/05/15 07:21:34;;;;;;;4.22;2.28;;;16.90;68.30;;;;;;5026772;28;20028;-64
2021/05/15 07:23:59;;;;;;;4.28;1.98;;;17.00;67.90;;;;;;5001865;28;20022;-65
2021/05/15 07:26:25;;;;;;;5.70;1.80;;;17.00;68.00;;;;;;5021050;28;20477;-65
2021/05/15 07:28:51;;;;;;;4.45;2.00;;;17.00;68.00;;;;;;5001780;28;20057;-64
2021/05/15 07:31:16;;;;;;;3.55;1.88;;;17.00;67.70;;;;;;5035342;28;20404;-64
2021/05/15 07:33:42;;;;;;;4.95;2.10;;;17.00;67.70;;;;;;5020892;28;20029;-65
2021/05/15 07:36:08;;;;;;;3.03;1.48;;;17.00;67.80;;;;;;5022856;28;20034;-64
2021/05/15 07:38:36;;;;;;;4.22;1.90;;;17.00;67.90;;;;;;5023339;28;20024;-65
2021/05/15 07:41:01;;;;;;;3.47;1.77;;;17.00;67.80;;;;;;5023459;28;20017;-66
2021/05/15 07:43:27;;;;;;;4.00;1.70;;;17.00;67.80;;;;;;5021398;28;20030;-64
2021/05/15 07:45:54;;;;;;;3.90;1.90;;;17.00;67.90;;;;;;5022892;28;20053;-66
2021/05/15 07:48:28;;;;;;;3.38;1.73;;;17.00;67.90;;;;;;5023063;28;20072;-64
2021/05/15 07:51:05;;;;;;;3.40;1.60;;;17.00;67.80;;;;;;5022803;28;20028;-65
2021/05/15 07:53:30;;;;;;;2.95;1.80;;;17.00;67.70;;;;;;5018977;28;20018;-64
2021/05/15 07:55:56;;;;;;;3.83;1.80;;;17.10;67.60;;;;;;5020746;28;20025;-65
2021/05/15 07:58:21;;;;;;;3.78;1.88;;;17.10;67.40;;;;;;5013846;28;20513;-65
2021/05/15 08:00:47;;;;;;;3.25;1.73;;;17.10;67.10;;;;;;5012444;28;20026;-64
2021/05/15 08:03:12;;;;;;;4.55;1.95;;;17.10;67.00;;;;;;5013686;28;20025;-65
2021/05/15 08:05:38;;;;;;;3.60;1.80;;;17.10;67.00;;;;;;4995825;28;20080;-65
2021/05/15 08:08:05;;;;;;;6.72;1.90;;;17.20;67.10;;;;;;5012422;28;20065;-66
2021/05/15 08:10:32;;;;;;;14.68;2.67;;;17.20;66.90;;;;;;5013629;28;20032;-66
2021/05/15 08:12:59;;;;;;;4.78;2.00;;;17.30;66.40;;;;;;5013527;28;20026;-65
2021/05/15 08:15:25;;;;;;;4.18;1.70;;;17.50;66.40;;;;;;5013170;28;20404;-65
2021/05/15 08:17:51;;;;;;;5.10;1.63;;;17.60;65.70;;;;;;5013611;28;20022;-65
2021/05/15 08:20:17;;;;;;;4.45;1.40;;;17.70;65.20;;;;;;5013481;28;20029;-66
2021/05/15 08:22:43;;;;;;;5.20;1.60;;;17.70;65.00;;;;;;5022065;28;20025;-66
2021/05/15 08:25:10;;;;;;;4.28;1.77;;;17.70;65.30;;;;;;5014319;28;20411;-68
2021/05/15 08:27:38;;;;;;;4.40;1.55;;;17.70;65.40;;;;;;5021169;28;20481;-66
2021/05/15 08:30:06;;;;;;;6.80;1.70;;;17.70;65.40;;;;;;5024446;28;20116;-65
2021/05/15 08:32:33;;;;;;;2.88;1.50;;;17.70;65.30;;;;;;5012536;28;20079;-66
2021/05/15 08:34:59;;;;;;;4.85;1.70;;;17.70;65.60;;;;;;5010102;28;543384;-65
2021/05/15 08:37:24;;;;;;;4.05;1.58;;;17.70;65.30;;;;;;5041186;23;20516;-70
2021/05/15 08:39:50;;;;;;;4.53;1.58;;;17.70;65.20;;;;;;4996332;28;20049;-71
2021/05/15 08:42:19;;;;;;;4.32;1.77;;;17.70;65.60;;;;;;5014179;28;20030;-70
2021/05/15 08:44:48;;;;;;;3.65;1.60;;;17.90;64.80;;;;;;5013807;28;20108;-70
2021/05/15 08:47:18;;;;;;;4.78;1.60;;;18.10;64.50;;;;;;5012413;28;20026;-70
2021/05/15 08:49:45;;;;;;;5.13;1.80;;;18.00;64.30;;;;;;4996464;28;20026;-70
2021/05/15 08:52:12;;;;;;;3.63;1.85;;;18.00;64.70;;;;;;5014147;28;20117;-70
2021/05/15 08:54:38;;;;;;;5.40;2.17;;;18.10;64.20;;;;;;4996044;28;20028;-70
2021/05/15 08:57:04;;;;;;;3.65;1.67;;;18.10;64.60;;;;;;5013834;28;20397;-71
2021/05/15 08:59:29;;;;;;;3.47;1.70;;;18.20;64.10;;;;;;4996216;28;20026;-70
2021/05/15 09:01:56;;;;;;;5.07;1.92;;;18.20;63.90;;;;;;4996162;28;20060;-69
2021/05/15 09:04:23;;;;;;;4.65;1.70;;;18.40;63.40;;;;;;5013500;28;20117;-70
2021/05/15 09:06:49;;;;;;;4.57;2.00;;;18.90;62.60;;;;;;4996070;28;20116;-70
2021/05/15 09:09:14;;;;;;;4.20;1.75;;;19.10;61.20;;;;;;5014063;28;20104;-68
2021/05/15 09:11:40;;;;;;;3.95;1.92;;;19.10;60.70;;;;;;5013570;28;20026;-71
2021/05/15 09:14:16;;;;;;;3.97;1.92;;;19.20;61.10;;;;;;5013182;28;20026;-69
2021/05/15 09:16:54;;;;;;;4.72;1.80;;;19.20;60.20;;;;;;5013464;28;20018;-70
2021/05/15 09:19:22;;;;;;;6.45;2.47;;;19.40;60.20;;;;;;4995896;28;20444;-70
2021/05/15 09:22:01;;;;;;;12.60;2.65;;;19.40;59.70;;;;;;4995904;28;20437;-69
2021/05/15 09:24:31;;;;;;;5.50;1.70;;;19.30;60.70;;;;;;5013096;28;20418;-72
2021/05/15 09:26:58;;;;;;;5.53;2.10;;;19.40;59.60;;;;;;4995680;28;20037;-71
2021/05/15 09:29:23;;;;;;;6.85;1.83;;;19.40;59.90;;;;;;5013245;28;20269;-70
2021/05/15 09:31:49;;;;;;;5.18;2.30;;;19.20;59.80;;;;;;4995595;28;20401;-69
2021/05/15 09:34:15;;;;;;;8.95;2.60;;;19.10;60.50;;;;;;5012907;28;20068;-70
2021/05/15 09:36:46;;;;;;;5.65;2.22;;;18.90;60.70;;;;;;5013021;28;20560;-70
2021/05/15 09:39:21;;;;;;;11.10;2.50;;;18.80;61.30;;;;;;4994613;28;20021;-70
2021/05/15 09:41:55;;;;;;;11.10;2.65;;;18.70;62.00;;;;;;5001514;28;20072;-69
2021/05/15 09:44:25;;;;;;;9.73;2.10;;;18.70;62.50;;;;;;4975488;28;20030;-70
2021/05/15 09:46:52;;;;;;;7.70;2.17;;;18.60;62.60;;;;;;4975859;28;20033;-70
2021/05/15 09:49:24;;;;;;;12.25;2.75;;;18.70;62.60;;;;;;4975741;28;20027;-69
2021/05/15 09:51:58;;;;;;;8.60;2.25;;;18.60;63.00;;;;;;4975723;28;20031;-70
2021/05/15 09:54:27;;;;;;;6.45;2.45;;;18.50;62.70;;;;;;4992719;28;20026;-74
2021/05/15 09:57:00;;;;;;;9.75;2.20;;;18.50;62.70;;;;;;4992994;28;20029;-69
2021/05/15 09:59:27;;;;;;;11.88;2.58;;;18.50;62.90;;;;;;5010626;28;20053;-70
2021/05/15 10:01:56;;;;;;;8.50;2.70;;;18.50;63.10;;;;;;5015136;28;20017;-70
2021/05/15 10:04:23;;;;;;;7.45;2.47;;;18.50;63.00;;;;;;5017846;28;20029;-70
2021/05/15 10:06:50;;;;;;;7.25;2.20;;;18.50;63.00;;;;;;5021458;28;20010;-70
2021/05/15 10:09:46;;;;;;;6.63;2.42;;;18.50;63.20;;;;;;5012389;28;20033;-71
2021/05/15 10:12:12;;;;;;;6.47;2.25;;;18.60;63.50;;;;;;4982529;28;20037;-71
2021/05/15 10:14:37;;;;;;;8.82;2.58;;;18.60;63.50;;;;;;5022588;28;20691;-70
2021/05/15 10:17:03;;;;;;;7.78;2.28;;;18.60;63.10;;;;;;5023969;28;20552;-69
2021/05/15 10:19:29;;;;;;;5.97;2.05;;;18.60;62.90;;;;;;5031312;28;20028;-69
2021/05/15 10:21:55;;;;;;;9.50;2.30;;;18.70;62.90;;;;;;5022555;28;20029;-71
2021/05/15 10:24:24;;;;;;;7.07;2.22;;;18.60;63.30;;;;;;5011127;28;20072;-74
2021/05/15 10:27:08;;;;;;;8.57;2.42;;;18.60;63.10;;;;;;5013786;28;20030;-69
2021/05/15 10:29:42;;;;;;;6.40;2.00;;;18.60;63.50;;;;;;5011655;28;20507;-73
2021/05/15 10:32:21;;;;;;;8.20;2.25;;;18.60;63.20;;;;;;5012041;28;20026;-68
2021/05/15 10:34:49;;;;;;;9.13;2.97;;;18.50;63.20;;;;;;5011869;28;20480;-69
2021/05/15 10:37:19;;;;;;;12.80;2.55;;;18.50;63.50;;;;;;5011906;28;20041;-70
2021/05/15 10:39:47;;;;;;;9.68;2.78;;;18.40;63.20;;;;;;5012042;28;20056;-71
2021/05/15 10:42:13;;;;;;;12.23;2.60;;;18.40;63.70;;;;;;5011820;28;20021;-70
2021/05/15 10:44:45;;;;;;;8.52;2.70;;;18.40;63.60;;;;;;5011618;28;20026;-70
2021/05/15 10:47:11;;;;;;;7.82;2.65;;;18.30;63.80;;;;;;5011873;28;20030;-72
2021/05/15 10:49:38;;;;;;;10.00;2.80;;;18.30;63.70;;;;;;5009737;28;20107;-69
2021/05/15 10:52:17;;;;;;;6.65;2.20;;;18.30;63.80;;;;;;5018980;28;20457;-70
2021/05/15 10:54:48;;;;;;;7.05;2.17;;;18.30;63.60;;;;;;5014721;28;20472;-70
2021/05/15 10:57:15;;;;;;;8.43;2.53;;;18.30;63.60;;;;;;4998116;28;20021;-69
2021/05/15 10:59:42;;;;;;;5.72;2.03;;;18.40;63.60;;;;;;5011031;28;20702;-69
2021/05/15 11:02:12;;;;;;;5.45;2.10;;;18.40;63.40;;;;;;4993604;28;20029;-68
2021/05/15 11:04:54;;;;;;;6.40;2.00;;;18.50;63.30;;;;;;5013444;28;20029;-68
2021/05/15 11:07:22;;;;;;;8.57;2.20;;;18.50;63.40;;;;;;5016859;28;20036;-69
2021/05/15 11:09:53;;;;;;;6.57;1.83;;;18.60;63.60;;;;;;5021597;28;20032;-70
2021/05/15 11:12:19;;;;;;;6.70;1.90;;;18.80;63.00;;;;;;5023075;28;20080;-68
2021/05/15 11:14:47;;;;;;;6.35;1.70;;;19.20;62.60;;;;;;5013146;28;20084;-68
2021/05/15 11:17:20;;;;;;;4.40;1.63;;;19.40;61.70;;;;;;5012178;28;20021;-69
2021/05/15 11:19:52;;;;;;;5.80;1.48;;;19.50;61.10;;;;;;5013853;28;20032;-69
2021/05/15 11:22:19;;;;;;;3.13;1.50;;;19.70;60.40;;;;;;5030933;28;20369;-68
2021/05/15 11:24:55;;;;;;;4.90;1.67;;;19.70;59.90;;;;;;5013237;28;20071;-69
2021/05/15 11:27:22;;;;;;;3.90;1.60;;;19.80;59.70;;;;;;5031277;28;20025;-69
2021/05/15 11:30:02;;;;;;;1.95;1.38;;;19.80;59.60;;;;;;5031152;28;20029;-69
2021/05/15 11:32:28;;;;;;;1.70;1.10;;;19.80;59.50;;;;;;5013357;28;20055;-70
2021/05/15 11:34:55;;;;;;;3.00;1.08;;;19.90;58.90;;;;;;5030868;28;20052;-70
2021/05/15 11:37:21;;;;;;;1.75;1.15;;;19.80;58.70;;;;;;5013242;28;20065;-70
2021/05/15 11:39:53;;;;;;;3.10;1.40;;;19.80;58.40;;;;;;5031071;28;20049;-71
2021/05/15 11:42:19;;;;;;;2.78;1.60;;;19.60;58.70;;;;;;5013142;28;20071;-69
2021/05/15 11:44:51;;;;;;;3.03;1.90;;;19.40;58.30;;;;;;5030791;28;20053;-70
2021/05/15 11:47:17;;;;;;;3.95;1.75;;;19.20;58.40;;;;;;5031000;28;20033;-69
2021/05/15 11:49:43;;;;;;;3.50;2.08;;;19.10;58.10;;;;;;5031286;28;20017;-69
2021/05/15 11:52:09;;;;;;;3.67;2.38;;;18.90;58.50;;;;;;5031173;28;20084;-69
2021/05/15 11:54:36;;;;;;;4.53;2.40;;;18.80;58.60;;;;;;5030820;28;20033;-69
2021/05/15 11:57:03;;;;;;;3.40;2.22;;;18.80;59.40;;;;;;5030958;28;20113;-69
2021/05/15 11:59:30;;;;;;;4.20;2.67;;;18.70;59.80;;;;;;5030980;28;20089;-69
2021/05/15 12:01:57;;;;;;;4.85;2.88;;;18.70;60.30;;;;;;5031068;28;20369;-68
2021/05/15 12:04:26;;;;;;;4.07;2.70;;;18.60;60.80;;;;;;5013047;28;20029;-66
2021/05/15 12:07:08;;;;;;;3.60;2.40;;;18.70;61.20;;;;;;5031048;28;20487;-68
2021/05/15 12:09:34;;;;;;;3.60;2.20;;;18.80;61.40;;;;;;5030950;28;20451;-69
2021/05/15 12:12:09;;;;;;;3.83;2.35;;;18.80;61.70;;;;;;5030830;28;20057;-69
2021/05/15 12:14:39;;;;;;;3.67;2.30;;;18.80;61.80;;;;;;5030567;28;20022;-69
2021/05/15 12:17:14;;;;;;;5.43;2.58;;;18.80;61.80;;;;;;5030704;28;20423;-69
2021/05/15 12:19:39;;;;;;;4.10;2.40;;;18.90;62.00;;;;;;5013215;28;20075;-69
2021/05/15 12:22:08;;;;;;;3.92;2.40;;;18.90;61.80;;;;;;5014870;28;20025;-69
2021/05/15 12:24:39;;;;;;;5.28;2.95;;;19.00;61.70;;;;;;5034296;28;20595;-64
2021/05/15 12:27:20;;;;;;;4.95;2.75;;;19.00;61.60;;;;;;5016647;28;20116;-66
2021/05/15 12:30:06;;;;;;;5.20;2.90;;;19.10;61.60;;;;;;5034405;28;20492;-68
2021/05/15 12:32:33;;;;;;;3.40;2.20;;;19.10;61.40;;;;;;5034252;28;20057;-69
2021/05/15 12:35:01;;;;;;;5.32;2.75;;;19.10;61.10;;;;;;5033938;28;20022;-68
2021/05/15 12:37:38;;;;;;;9.25;2.33;;;19.10;61.00;;;;;;5034173;28;20064;-64
2021/05/15 12:40:09;;;;;;;16.63;3.90;;;19.10;61.00;;;;;;5034175;28;20021;-70
2021/05/15 12:42:35;;;;;;;11.40;2.83;;;19.10;61.50;;;;;;5016278;28;20033;-65
2021/05/15 12:45:15;;;;;;;10.77;2.75;;;19.10;61.20;;;;;;5033804;28;20406;-67
2021/05/15 12:47:42;;;;;;;8.90;2.83;;;19.10;61.50;;;;;;5034061;28;20040;-70